Time;durP1;ratioP1;P1;durP2;ratioP2;P2;SDS_P1;SDS_P2;PMS_P1;PMS_P2;Temp;Humidity;BMP_temperature;BMP_pressure;BME280_temperature;BME280_humidity;BME280_pressure;Samples;Min_cycle;Max_cycle;Signal;HPM_P1;HPM_P2
2021/08/04 00:01:27;;;;;;;7.60;5.80;;;;;;;12.99;100.00;101381.72;3608617;39;20053;-61
2021/08/04 00:03:54;;;;;;;9.05;6.30;;;;;;;12.97;100.00;101371.91;3606344;39;20406;-61
2021/08/04 00:06:22;;;;;;;9.05;6.10;;;;;;;13.06;100.00;101378.31;3608828;39;20047;-61
2021/08/04 00:08:48;;;;;;;8.20;5.70;;;;;;;13.01;100.00;101377.03;3608881;39;20390;-61
2021/08/04 00:11:14;;;;;;;11.65;6.03;;;;;;;13.02;100.00;101378.75;3609188;39;20053;-61
2021/08/04 00:13:41;;;;;;;8.10;6.15;;;;;;;13.04;100.00;101380.28;3608980;39;20145;-61
2021/08/04 00:16:07;;;;;;;7.43;5.28;;;;;;;13.03;100.00;101377.72;3608575;39;20035;-61
2021/08/04 00:18:34;;;;;;;6.82;5.68;;;;;;;13.03;100.00;101381.31;3609276;39;20152;-61
2021/08/04 00:21:01;;;;;;;7.57;5.03;;;;;;;13.02;100.00;101371.47;3609318;39;20054;-61
2021/08/04 00:23:28;;;;;;;8.25;4.93;;;;;;;13.03;100.00;101383.13;3607543;39;20060;-61
2021/08/04 00:25:56;;;;;;;7.60;5.47;;;;;;;12.97;100.00;101384.56;3609073;39;20271;-61
2021/08/04 00:28:23;;;;;;;9.43;5.13;;;;;;;12.84;100.00;101376.72;3608793;39;20075;-61
2021/08/04 00:30:49;;;;;;;7.15;5.63;;;;;;;12.87;100.00;101384.53;3609222;39;20124;-61
2021/08/04 00:33:16;;;;;;;8.27;5.45;;;;;;;12.83;100.00;101377.69;3609055;39;20039;-62
2021/08/04 00:35:42;;;;;;;6.85;5.72;;;;;;;12.83;100.00;101387.66;3608990;39;20043;-61
2021/08/04 00:41:04;;;;;;;7.15;5.45;;;;;;;12.81;100.00;101379.69;3599556;22;20039;-61
2021/08/04 00:43:30;;;;;;;7.25;6.00;;;;;;;12.83;100.00;101376.84;3608904;39;20410;-61
2021/08/04 00:45:57;;;;;;;11.15;5.70;;;;;;;12.82;100.00;101389.50;3608828;39;20035;-61
2021/08/04 00:48:24;;;;;;;6.70;5.50;;;;;;;12.81;100.00;101385.09;3608587;39;20139;-61
2021/08/04 00:50:50;;;;;;;8.02;6.03;;;;;;;12.78;100.00;101385.38;3608806;39;20290;-61
2021/08/04 00:53:19;;;;;;;8.65;5.80;;;;;;;12.72;100.00;101385.91;3608903;39;20035;-61
2021/08/04 00:55:45;;;;;;;11.07;6.03;;;;;;;12.68;100.00;101390.75;3609224;39;20047;-61
2021/08/04 00:58:13;;;;;;;7.22;5.82;;;;;;;12.64;100.00;101383.06;3606367;39;20036;-61
2021/08/04 01:00:43;;;;;;;9.15;6.30;;;;;;;12.58;100.00;101389.84;3608890;39;20046;-61
2021/08/04 01:03:15;;;;;;;9.93;6.28;;;;;;;12.51;100.00;101384.13;3608925;39;20035;-61
2021/08/04 01:05:47;;;;;;;8.98;6.68;;;;;;;12.42;100.00;101387.66;3608804;39;20051;-61
2021/08/04 01:08:19;;;;;;;8.05;6.10;;;;;;;12.38;100.00;101389.78;3608847;39;20043;-61
2021/08/04 01:10:49;;;;;;;8.68;6.72;;;;;;;12.31;100.00;101385.03;3608874;39;20038;-61
2021/08/04 01:13:21;;;;;;;10.65;7.35;;;;;;;12.22;100.00;101390.25;3609055;39;20405;-62
2021/08/04 01:15:53;;;;;;;12.10;7.80;;;;;;;12.21;100.00;101396.63;3608706;39;20039;-61
2021/08/04 01:18:24;;;;;;;8.43;7.45;;;;;;;12.20;100.00;101391.38;3608317;39;20044;-62
2021/08/04 01:20:51;;;;;;;10.75;7.30;;;;;;;12.16;100.00;101389.91;3608823;39;20035;-62
2021/08/04 01:23:25;;;;;;;9.35;7.90;;;;;;;12.08;100.00;101391.44;3608689;39;20372;-61
2021/08/04 01:25:56;;;;;;;9.38;7.40;;;;;;;12.12;100.00;101397.44;3608393;39;20421;-61
2021/08/04 01:28:29;;;;;;;10.40;7.43;;;;;;;12.13;100.00;101393.78;3608768;39;20280;-61
2021/08/04 01:31:00;;;;;;;11.88;7.32;;;;;;;12.09;100.00;101389.63;3608469;39;20055;-61
2021/08/04 01:33:29;;;;;;;11.73;8.85;;;;;;;12.08;100.00;101387.91;3608617;39;20058;-61
2021/08/04 01:35:57;;;;;;;10.80;8.27;;;;;;;12.10;100.00;101385.91;3608697;39;20043;-61
2021/08/04 01:38:25;;;;;;;16.85;8.82;;;;;;;12.11;100.00;101379.53;3607974;39;20054;-61
2021/08/04 01:40:54;;;;;;;11.30;8.70;;;;;;;12.06;100.00;101388.03;3608433;39;20028;-61
2021/08/04 01:43:21;;;;;;;12.02;9.07;;;;;;;12.07;100.00;101376.25;3608756;39;20027;-61
2021/08/04 01:45:50;;;;;;;10.32;7.63;;;;;;;12.07;100.00;101381.66;3608471;39;20485;-61
2021/08/04 01:48:18;;;;;;;9.32;7.63;;;;;;;12.00;100.00;101387.69;3608280;39;20037;-61
2021/08/04 01:50:45;;;;;;;11.00;7.65;;;;;;;12.02;100.00;101383.03;3608630;39;20040;-61
2021/08/04 01:53:12;;;;;;;14.88;8.20;;;;;;;11.95;100.00;101382.69;3608591;39;20048;-61
2021/08/04 01:55:38;;;;;;;13.20;8.82;;;;;;;11.95;100.00;101380.00;3608293;39;20047;-62
2021/08/04 01:58:05;;;;;;;12.02;8.93;;;;;;;11.94;100.00;101374.75;3608279;39;20131;-61
2021/08/04 02:00:31;;;;;;;13.00;8.70;;;;;;;11.87;100.00;101375.25;3608650;39;20059;-61
2021/08/04 02:02:59;;;;;;;13.82;8.98;;;;;;;11.84;100.00;101372.81;3608516;39;20359;-61
2021/08/04 02:05:26;;;;;;;13.32;9.05;;;;;;;11.82;100.00;101372.09;3608406;39;20388;-61
2021/08/04 02:08:01;;;;;;;12.07;8.32;;;;;;;11.79;100.00;101377.72;3608983;39;20034;-61
2021/08/04 02:10:36;;;;;;;11.63;9.18;;;;;;;11.76;100.00;101378.00;3607926;39;20040;-61
2021/08/04 02:13:09;;;;;;;11.30;8.40;;;;;;;11.77;100.00;101376.19;3608592;39;20394;-61
2021/08/04 02:15:40;;;;;;;12.25;7.65;;;;;;;11.76;100.00;101375.31;3608133;39;20038;-61
2021/08/04 02:18:15;;;;;;;10.68;8.65;;;;;;;11.77;100.00;101368.94;3608245;39;20062;-61
2021/08/04 02:20:45;;;;;;;11.02;8.52;;;;;;;11.71;100.00;101364.91;3607960;39;20044;-61
2021/08/04 02:23:17;;;;;;;11.73;8.45;;;;;;;11.72;100.00;101374.72;3608390;39;20302;-61
2021/08/04 02:25:47;;;;;;;10.80;8.80;;;;;;;11.67;100.00;101373.41;3608132;39;20079;-61
2021/08/04 02:28:19;;;;;;;12.95;9.10;;;;;;;11.63;100.00;101380.03;3608046;39;20371;-61
2021/08/04 02:30:47;;;;;;;10.57;8.43;;;;;;;11.63;100.00;101377.34;3608163;39;20067;-61
2021/08/04 02:33:15;;;;;;;11.52;9.07;;;;;;;11.55;100.00;101375.28;3608479;39;20032;-60
2021/08/04 02:35:42;;;;;;;10.90;7.93;;;;;;;11.55;100.00;101369.91;3608576;39;20394;-61
2021/08/04 02:38:08;;;;;;;12.95;8.20;;;;;;;11.54;100.00;101377.16;3607875;39;20048;-61
2021/08/04 02:40:34;;;;;;;11.98;9.75;;;;;;;11.54;100.00;101371.75;3608316;39;20048;-61
2021/08/04 02:43:03;;;;;;;13.85;9.25;;;;;;;11.55;100.00;101380.69;3608573;39;20034;-61
2021/08/04 02:45:30;;;;;;;11.03;9.10;;;;;;;11.47;100.00;101367.88;3607972;39;20036;-61
2021/08/04 02:47:56;;;;;;;11.85;9.15;;;;;;;11.46;100.00;101368.84;3608301;39;20032;-61
2021/08/04 02:50:26;;;;;;;14.02;9.15;;;;;;;11.45;100.00;101368.97;3607608;39;20074;-61
2021/08/04 02:52:53;;;;;;;11.82;8.32;;;;;;;11.47;100.00;101373.25;3608226;39;20024;-61
2021/08/04 02:55:19;;;;;;;15.05;9.40;;;;;;;11.41;100.00;101368.38;3607718;39;20036;-61
2021/08/04 02:57:46;;;;;;;11.65;9.60;;;;;;;11.38;100.00;101368.63;3607730;39;20039;-61
2021/08/04 03:00:13;;;;;;;12.23;9.38;;;;;;;11.32;100.00;101364.63;3607149;39;20030;-64
2021/08/04 03:02:39;;;;;;;13.57;9.88;;;;;;;11.33;100.00;101365.47;3607899;39;20386;-61
2021/08/04 03:05:07;;;;;;;13.80;10.02;;;;;;;11.32;100.00;101364.63;3607925;39;20027;-61
2021/08/04 03:07:35;;;;;;;10.57;8.70;;;;;;;11.29;100.00;101366.69;3607961;39;20038;-61
2021/08/04 03:10:01;;;;;;;12.85;9.05;;;;;;;11.28;100.00;101362.28;3607769;39;20038;-61
2021/08/04 03:12:28;;;;;;;12.65;9.07;;;;;;;11.26;100.00;101364.25;3607641;39;20054;-61
2021/08/04 03:14:54;;;;;;;11.55;9.35;;;;;;;11.24;100.00;101363.56;3607972;39;20055;-62
2021/08/04 03:17:20;;;;;;;12.30;9.20;;;;;;;11.20;100.00;101368.31;3608228;39;20370;-61
2021/08/04 03:19:47;;;;;;;13.15;9.48;;;;;;;11.21;100.00;101370.03;3607853;39;20051;-61
2021/08/04 03:22:13;;;;;;;11.13;8.85;;;;;;;11.16;100.00;101372.25;3607528;39;20043;-61
2021/08/04 03:24:41;;;;;;;11.07;9.02;;;;;;;11.11;100.00;101361.84;3607789;39;20036;-61
2021/08/04 03:27:08;;;;;;;11.95;9.80;;;;;;;11.11;100.00;101364.56;3607929;39;20063;-61
2021/08/04 03:29:34;;;;;;;12.10;9.45;;;;;;;11.16;100.00;101369.56;3608130;39;20351;-61
2021/08/04 03:32:00;;;;;;;12.68;9.82;;;;;;;11.12;100.00;101365.44;3608060;39;20057;-61
2021/08/04 03:34:27;;;;;;;14.10;10.70;;;;;;;11.11;100.00;101361.84;3607535;39;20043;-62
2021/08/04 03:36:53;;;;;;;16.88;9.68;;;;;;;11.20;100.00;101365.63;3607809;39;20407;-61
2021/08/04 03:39:20;;;;;;;11.63;9.52;;;;;;;11.22;100.00;101363.69;3607888;39;20119;-61
2021/08/04 03:41:48;;;;;;;12.60;10.02;;;;;;;11.22;100.00;101363.69;3608111;39;20042;-61
2021/08/04 03:44:14;;;;;;;12.18;9.88;;;;;;;11.18;100.00;101356.84;3607175;39;20059;-61
2021/08/04 03:46:46;;;;;;;13.18;9.60;;;;;;;11.15;100.00;101360.63;3607537;39;20321;-61
2021/08/04 03:49:12;;;;;;;14.75;9.77;;;;;;;11.15;100.00;101363.31;3607600;39;20115;-61
2021/08/04 03:51:39;;;;;;;12.95;9.73;;;;;;;11.17;100.00;101364.06;3607594;39;20039;-61
2021/08/04 03:54:05;;;;;;;13.48;10.27;;;;;;;11.17;100.00;101364.06;3607116;39;20394;-61
2021/08/04 03:56:32;;;;;;;15.02;9.90;;;;;;;11.22;100.00;101366.38;3607468;39;20059;-60
2021/08/04 03:59:00;;;;;;;15.45;9.55;;;;;;;11.17;100.00;101364.06;3607695;39;20045;-61
2021/08/04 04:01:27;;;;;;;16.07;10.20;;;;;;;11.21;100.00;101368.19;3607712;39;20072;-62
2021/08/04 04:03:53;;;;;;;14.00;9.82;;;;;;;11.31;100.00;101362.91;3607903;39;20108;-61
2021/08/04 04:06:20;;;;;;;13.30;9.98;;;;;;;11.30;100.00;101371.13;3607272;39;20031;-61
2021/08/04 04:08:46;;;;;;;13.80;9.75;;;;;;;11.38;100.00;101368.63;3607326;39;20035;-61
2021/08/04 04:11:13;;;;;;;14.90;10.48;;;;;;;11.30;100.00;101365.72;3607962;39;20055;-61
2021/08/04 04:13:39;;;;;;;13.73;10.00;;;;;;;11.30;100.00;101365.72;3608398;39;20036;-61
2021/08/04 04:16:07;;;;;;;12.60;9.57;;;;;;;11.32;100.00;101369.13;3608504;39;20030;-61
2021/08/04 04:18:33;;;;;;;13.32;10.45;;;;;;;11.33;100.00;101374.41;3609293;39;20044;-62
2021/08/04 04:21:00;;;;;;;12.20;9.63;;;;;;;11.35;100.00;101379.66;3609091;39;20055;-62
2021/08/04 04:23:27;;;;;;;14.00;10.63;;;;;;;11.33;100.00;101384.34;3606208;39;20276;-61
2021/08/04 04:25:53;;;;;;;18.30;10.43;;;;;;;11.36;100.00;101376.84;3606474;39;20279;-61
2021/08/04 04:28:19;;;;;;;14.02;10.00;;;;;;;11.37;100.00;101377.72;3608704;39;20032;-61
2021/08/04 04:30:46;;;;;;;15.18;10.07;;;;;;;11.41;100.00;101381.88;3609028;39;20054;-61
2021/08/04 04:33:14;;;;;;;13.55;9.02;;;;;;;11.44;100.00;101389.69;3608704;39;20032;-61
2021/08/04 04:35:40;;;;;;;12.40;9.40;;;;;;;11.47;100.00;101384.03;3609140;39;20046;-61
2021/08/04 04:38:06;;;;;;;11.93;9.45;;;;;;;11.50;100.00;101386.47;3608490;39;20036;-61
2021/08/04 04:40:33;;;;;;;14.55;9.95;;;;;;;11.53;100.00;101394.28;3609141;39;20055;-61
2021/08/04 04:42:59;;;;;;;13.80;9.32;;;;;;;11.60;100.00;101388.38;3608865;39;20038;-61
2021/08/04 04:45:26;;;;;;;12.98;10.05;;;;;;;11.64;100.00;101387.16;3608730;39;20080;-61
2021/08/04 04:47:52;;;;;;;14.32;10.60;;;;;;;11.70;100.00;101395.59;3609625;39;20093;-61
2021/08/04 04:50:20;;;;;;;14.82;10.25;;;;;;;11.81;100.00;101400.06;3608415;39;20040;-62
2021/08/04 04:52:46;;;;;;;12.82;9.85;;;;;;;11.78;100.00;101396.75;3608981;39;20043;-61
2021/08/04 04:55:14;;;;;;;14.15;10.27;;;;;;;11.85;100.00;101396.09;3608739;39;20046;-61
2021/08/04 04:57:41;;;;;;;15.50;10.55;;;;;;;11.92;100.00;101397.31;3606647;39;20390;-61
2021/08/04 05:00:09;;;;;;;12.80;9.35;;;;;;;12.01;100.00;101400.22;3608529;39;20054;-62
2021/08/04 05:02:37;;;;;;;14.85;10.00;;;;;;;12.02;100.00;101400.06;3608861;39;20040;-61
2021/08/04 05:05:04;;;;;;;12.68;10.27;;;;;;;12.09;100.00;101401.25;3608682;39;20043;-61
2021/08/04 05:07:32;;;;;;;15.82;10.30;;;;;;;12.21;100.00;101398.50;3608988;39;20036;-61
2021/08/04 05:09:59;;;;;;;16.30;10.13;;;;;;;12.31;100.00;101398.53;3608731;39;20426;-62
2021/08/04 05:12:25;;;;;;;14.35;11.07;;;;;;;12.48;100.00;101397.91;3608518;39;20348;-61
2021/08/04 05:14:52;;;;;;;13.13;9.82;;;;;;;12.59;100.00;101392.41;3608523;39;20039;-61
2021/08/04 05:17:18;;;;;;;13.38;9.30;;;;;;;12.68;100.00;101389.91;3608626;39;20036;-61
2021/08/04 05:19:45;;;;;;;16.40;10.02;;;;;;;12.66;100.00;101400.84;3608890;39;20044;-61
2021/08/04 05:22:11;;;;;;;13.55;9.57;;;;;;;12.68;100.00;101406.09;3608582;39;20044;-61
2021/08/04 05:24:39;;;;;;;12.75;9.55;;;;;;;12.71;100.00;101406.66;3608454;39;20023;-62
2021/08/04 05:27:06;;;;;;;12.77;9.57;;;;;;;12.74;100.00;101400.16;3608941;39;20040;-62
2021/08/04 05:29:32;;;;;;;13.98;9.73;;;;;;;12.90;100.00;101407.72;3608652;39;20058;-62
2021/08/04 05:31:59;;;;;;;11.48;9.48;;;;;;;13.04;100.00;101406.47;3608867;39;20374;-62
2021/08/04 05:34:25;;;;;;;12.88;9.73;;;;;;;13.07;100.00;101407.06;3608029;39;20042;-62
2021/08/04 05:36:52;;;;;;;11.77;8.85;;;;;;;13.15;100.00;101403.66;3608527;39;20488;-62
2021/08/04 05:39:18;;;;;;;11.23;9.02;;;;;;;13.17;100.00;101400.81;3608467;39;20038;-62
2021/08/04 05:41:46;;;;;;;13.90;9.13;;;;;;;13.26;100.00;101403.50;3608626;39;20055;-62
2021/08/04 05:44:12;;;;;;;11.80;8.55;;;;;;;13.38;100.00;101415.09;3608112;39;20052;-62
2021/08/04 05:46:39;;;;;;;11.57;8.98;;;;;;;13.45;100.00;101418.09;3608507;39;20034;-62
2021/08/04 05:49:05;;;;;;;10.75;8.30;;;;;;;13.47;100.00;101416.09;3608733;39;20043;-61
2021/08/04 05:51:32;;;;;;;12.95;8.77;;;;;;;13.51;100.00;101408.56;3608804;39;20051;-62
2021/08/04 05:53:58;;;;;;;11.23;8.65;;;;;;;13.76;100.00;101417.94;3608438;39;20048;-62
2021/08/04 05:56:24;;;;;;;10.55;8.30;;;;;;;13.81;100.00;101415.69;3605954;39;20124;-62
2021/08/04 05:58:52;;;;;;;11.57;8.50;;;;;;;13.90;100.00;101409.41;3608351;39;20047;-62
2021/08/04 06:01:19;;;;;;;11.57;8.35;;;;;;;13.97;100.00;101415.06;3608350;39;20039;-61
2021/08/04 06:03:45;;;;;;;10.77;8.48;;;;;;;13.96;100.00;101419.66;3608343;39;20038;-62
2021/08/04 06:06:11;;;;;;;13.38;9.32;;;;;;;13.90;100.00;101420.22;3608147;39;20375;-61
2021/08/04 06:08:38;;;;;;;10.77;8.65;;;;;;;13.91;100.00;101421.91;3608586;39;20063;-62
2021/08/04 06:11:04;;;;;;;10.80;8.40;;;;;;;13.79;100.00;101417.66;3608451;39;20036;-63
2021/08/04 06:13:31;;;;;;;10.13;8.13;;;;;;;13.96;100.00;101424.22;3608358;39;20119;-62
2021/08/04 06:15:58;;;;;;;11.98;8.32;;;;;;;13.93;100.00;101425.34;3608393;39;20055;-62
2021/08/04 06:18:25;;;;;;;10.13;7.40;;;;;;;13.99;100.00;101426.63;3608413;39;20403;-62
2021/08/04 06:20:51;;;;;;;10.15;7.93;;;;;;;14.10;100.00;101423.75;3608415;39;20051;-62
2021/08/04 06:23:18;;;;;;;10.40;8.10;;;;;;;14.12;100.00;101431.72;3608198;39;20283;-62
2021/08/04 06:25:44;;;;;;;10.73;7.93;;;;;;;14.15;100.00;101432.28;3608192;39;20038;-63
2021/08/04 06:28:11;;;;;;;9.63;7.13;;;;;;;14.32;100.00;101422.53;3607882;39;20360;-62
2021/08/04 06:30:38;;;;;;;9.98;7.40;;;;;;;14.45;100.00;101424.09;3607985;39;20034;-62
2021/08/04 06:33:05;;;;;;;8.88;7.32;;;;;;;14.41;100.00;101423.50;3608328;39;20059;-62
2021/08/04 06:35:32;;;;;;;8.45;7.43;;;;;;;14.57;100.00;101420.19;3607871;39;20044;-63
2021/08/04 06:37:58;;;;;;;9.27;7.70;;;;;;;14.50;100.00;101419.06;3608437;39;20036;-62
2021/08/04 06:40:27;;;;;;;9.45;6.80;;;;;;;14.60;100.00;101422.59;3607892;39;20024;-63
2021/08/04 06:42:53;;;;;;;11.35;7.13;;;;;;;14.75;100.00;101422.16;3608291;39;20043;-63
2021/08/04 06:45:20;;;;;;;9.27;6.78;;;;;;;14.79;100.00;101415.44;3607924;39;20046;-63
2021/08/04 06:47:46;;;;;;;9.20;7.28;;;;;;;14.73;100.00;101416.03;3608110;39;20047;-62
2021/08/04 06:50:14;;;;;;;8.63;7.10;;;;;;;14.78;100.00;101414.59;3607745;39;20039;-63
2021/08/04 06:52:40;;;;;;;10.32;6.25;;;;;;;14.94;100.00;101408.50;3608275;39;20052;-62
2021/08/04 06:55:07;;;;;;;9.65;6.85;;;;;;;15.16;100.00;101415.34;3608147;39;20367;-62
2021/08/04 06:57:34;;;;;;;8.00;7.07;;;;;;;15.22;100.00;101408.47;3605789;39;20085;-62
2021/08/04 07:00:00;;;;;;;10.73;7.65;;;;;;;15.43;100.00;101408.19;3608217;39;20047;-62
2021/08/04 07:02:27;;;;;;;9.27;7.13;;;;;;;15.32;100.00;101413.81;3607806;39;20143;-62
2021/08/04 07:04:53;;;;;;;9.63;6.60;;;;;;;15.53;100.00;101408.09;3607910;39;20039;-62
2021/08/04 07:07:21;;;;;;;8.88;6.57;;;;;;;15.68;100.00;101411.97;3608111;39;20062;-62
2021/08/04 07:09:47;;;;;;;7.68;6.47;;;;;;;15.94;100.00;101419.34;3608119;39;20036;-62
2021/08/04 07:12:14;;;;;;;6.15;5.32;;;;;;;15.99;100.00;101425.16;3607387;39;20042;-63
2021/08/04 07:14:41;;;;;;;7.95;6.82;;;;;;;15.83;100.00;101425.03;3607852;39;20046;-62
2021/08/04 07:17:07;;;;;;;8.77;6.35;;;;;;;15.88;100.00;101428.13;3607981;39;20038;-62
2021/08/04 07:19:34;;;;;;;8.45;6.32;;;;;;;16.34;100.00;101422.50;3607558;39;20036;-62
2021/08/04 07:22:01;;;;;;;8.48;6.38;;;;;;;16.04;100.00;101422.81;3607604;39;20485;-62
2021/08/04 07:24:29;;;;;;;6.45;5.60;;;;;;;16.06;100.00;101436.22;3601816;39;20390;-62
2021/08/04 07:26:55;;;;;;;8.75;6.10;;;;;;;15.87;100.00;101427.28;3608023;39;20047;-62
2021/08/04 07:29:22;;;;;;;8.07;6.20;;;;;;;15.98;100.00;101422.59;3608024;39;20317;-62
2021/08/04 07:31:49;;;;;;;8.68;6.35;;;;;;;15.92;100.00;101418.66;3607895;39;20028;-62
2021/08/04 07:34:17;;;;;;;7.38;5.63;;;;;;;16.17;100.00;101410.69;3607629;39;20457;-63
2021/08/04 07:36:44;;;;;;;7.72;5.72;;;;;;;16.68;100.00;101416.22;3607876;39;20068;-62
2021/08/04 07:39:10;;;;;;;7.60;6.32;;;;;;;16.79;100.00;101421.38;3607589;39;20467;-63
2021/08/04 07:41:38;;;;;;;6.30;5.18;;;;;;;17.16;100.00;101412.03;3607529;39;20040;-62
2021/08/04 07:44:05;;;;;;;6.28;5.13;;;;;;;17.22;100.00;101410.50;3607345;39;20032;-63
2021/08/04 07:46:31;;;;;;;8.15;5.55;;;;;;;17.41;100.00;101415.66;3608020;39;20034;-63
2021/08/04 07:48:58;;;;;;;9.45;6.07;;;;;;;17.64;100.00;101417.72;3609250;39;20301;-62
2021/08/04 07:51:24;;;;;;;8.18;5.63;;;;;;;17.71;100.00;101413.31;3609015;39;20040;-62
2021/08/04 07:53:51;;;;;;;7.15;6.20;;;;;;;17.87;100.00;101409.72;3609243;39;20035;-63
2021/08/04 07:56:21;;;;;;;9.23;6.25;;;;;;;17.49;100.00;101407.50;3608963;39;20382;-62
2021/08/04 07:58:49;;;;;;;8.18;5.80;;;;;;;17.88;100.00;101413.31;3609052;39;20057;-62
2021/08/04 08:01:15;;;;;;;5.68;5.03;;;;;;;18.40;100.00;101404.72;3609378;39;20048;-62
2021/08/04 08:03:42;;;;;;;7.18;5.25;;;;;;;18.48;100.00;101407.44;3609031;39;20039;-62
2021/08/04 08:06:08;;;;;;;7.40;5.70;;;;;;;18.38;100.00;101407.63;3608712;39;20036;-63
2021/08/04 08:08:35;;;;;;;8.65;6.55;;;;;;;18.24;100.00;101400.19;3609068;39;20087;-62
2021/08/04 08:11:03;;;;;;;8.77;5.85;;;;;;;18.60;100.00;101397.00;3609346;39;20039;-63
2021/08/04 08:13:30;;;;;;;8.38;5.72;;;;;;;18.90;100.00;101389.94;3609110;39;20089;-62
2021/08/04 08:15:57;;;;;;;8.40;5.78;;;;;;;18.53;100.00;101402.31;3609120;39;20031;-63
2021/08/04 08:18:24;;;;;;;7.40;5.63;;;;;;;18.46;100.00;101398.59;3608711;39;20058;-63
2021/08/04 08:20:50;;;;;;;6.88;5.43;;;;;;;19.15;100.00;101394.41;3608968;39;20111;-63
2021/08/04 08:23:17;;;;;;;9.25;6.72;;;;;;;19.11;100.00;101395.78;3607050;39;20047;-63
2021/08/04 08:25:43;;;;;;;6.32;5.70;;;;;;;19.15;100.00;101397.97;3605889;39;20039;-62
2021/08/04 08:30:55;;;;;;;8.13;6.38;;;;;;;19.44;100.00;101380.03;3621427;22;20121;-62
2021/08/04 08:33:23;;;;;;;7.63;6.15;;;;;;;19.18;100.00;101383.13;3598752;39;20317;-62
2021/08/04 08:35:49;;;;;;;8.73;6.13;;;;;;;19.33;100.00;101377.72;3598873;39;20048;-62
2021/08/04 08:38:16;;;;;;;8.88;5.47;;;;;;;19.63;100.00;101378.69;3598296;39;20328;-62
2021/08/04 08:40:45;;;;;;;7.68;6.18;;;;;;;19.68;100.00;101376.25;3598792;39;20076;-63
2021/08/04 08:43:12;;;;;;;10.77;6.43;;;;;;;19.83;100.00;101376.34;3599058;39;20028;-62
2021/08/04 08:45:39;;;;;;;8.98;6.32;;;;;;;19.95;100.00;101374.88;3598836;39;20036;-62
2021/08/04 08:48:06;;;;;;;8.32;5.95;;;;;;;20.18;100.00;101368.47;3598456;39;20317;-62
2021/08/04 08:53:00;;;;;;;9.95;6.38;;;;;;;19.86;100.00;101367.78;3640994;22;20056;-62
2021/08/04 08:55:27;;;;;;;8.32;6.65;;;;;;;19.85;100.00;101374.28;3608792;39;20309;-62
2021/08/04 08:57:54;;;;;;;10.82;6.13;;;;;;;20.12;100.00;101361.88;3606468;39;20040;-63
2021/08/04 09:00:20;;;;;;;8.20;5.78;;;;;;;20.38;100.00;101371.50;3607978;39;20031;-62
2021/08/04 09:02:47;;;;;;;10.60;6.05;;;;;;;20.40;100.00;101372.16;3608764;39;20035;-63
2021/08/04 09:05:15;;;;;;;10.07;6.43;;;;;;;20.35;100.00;101365.59;3608935;39;20057;-62
2021/08/04 09:07:43;;;;;;;7.47;5.65;;;;;;;20.52;100.00;101377.16;3609119;39;20048;-63
2021/08/04 09:10:27;;;;;;;9.13;5.88;;;;;;;20.85;100.00;101369.44;3608348;39;20405;-63
2021/08/04 09:12:56;;;;;;;7.20;5.90;;;;;;;21.04;100.00;101370.69;3609002;39;20051;-62
2021/08/04 09:15:30;;;;;;;8.30;6.53;;;;;;;20.24;100.00;101370.47;3608428;39;20116;-62
2021/08/04 09:18:06;;;;;;;7.50;6.20;;;;;;;20.53;100.00;101367.94;3608652;39;20302;-63
2021/08/04 09:20:42;;;;;;;9.98;7.20;;;;;;;19.92;100.00;101367.03;3608907;39;20079;-62
2021/08/04 09:23:12;;;;;;;9.88;6.75;;;;;;;19.52;100.00;101370.94;3607286;39;20072;-62
2021/08/04 09:25:40;;;;;;;9.23;6.80;;;;;;;19.76;100.00;101367.16;3604831;39;20043;-63
2021/08/04 09:28:08;;;;;;;13.70;6.68;;;;;;;20.25;100.00;101361.22;3608346;39;20400;-62
2021/08/04 09:30:36;;;;;;;7.97;6.63;;;;;;;20.16;100.00;101358.78;3608486;39;20038;-62
2021/08/04 09:33:15;;;;;;;8.05;6.38;;;;;;;20.53;100.00;101357.81;3608695;39;20068;-62
2021/08/04 09:35:43;;;;;;;;;;;;;;;20.46;100.00;101365.09;3609112;39;20035;-61
2021/08/04 09:38:09;;;;;;;9.50;6.45;;;;;;;20.65;100.00;101359.03;3608456;39;19947;-61
2021/08/04 09:40:36;;;;;;;7.05;6.20;;;;;;;20.45;100.00;101360.66;3608272;39;20426;-61
2021/08/04 09:43:04;;;;;;;10.75;6.82;;;;;;;19.93;100.00;101357.81;3608704;39;20383;-62
2021/08/04 09:45:41;;;;;;;7.72;6.57;;;;;;;19.84;100.00;101361.63;3608555;39;20043;-62
2021/08/04 09:48:09;;;;;;;8.88;6.43;;;;;;;19.78;100.00;101351.47;3608052;39;20571;-62
2021/08/04 09:50:53;;;;;;;8.27;6.40;;;;;;;20.47;100.00;101347.66;3608537;39;20286;-62
2021/08/04 09:53:23;;;;;;;9.40;6.78;;;;;;;21.07;100.00;101347.56;3599546;39;20274;-63
2021/08/04 09:56:07;;;;;;;8.25;6.80;;;;;;;21.13;100.00;101344.06;3598194;40;20368;-63
2021/08/04 09:58:36;;;;;;;9.13;6.00;;;;;;;21.47;100.00;101350.72;3596817;39;20133;-62
2021/08/04 10:01:04;;;;;;;8.93;6.15;;;;;;;22.19;100.00;101346.03;3598567;39;20305;-63
2021/08/04 10:03:33;;;;;;;7.25;5.50;;;;;;;22.20;100.00;101348.56;3598338;40;20495;-62
2021/08/04 10:05:59;;;;;;;7.32;5.45;;;;;;;22.26;100.00;101348.81;3598400;39;20040;-62
2021/08/04 10:08:26;;;;;;;5.93;5.30;;;;;;;22.33;100.00;101341.50;3597936;40;20328;-62
2021/08/04 10:10:54;;;;;;;9.15;5.25;;;;;;;22.33;100.00;101336.84;3598256;40;20048;-62
2021/08/04 10:13:22;;;;;;;8.32;6.05;;;;;;;21.51;100.00;101336.47;3598491;40;20043;-62
2021/08/04 10:15:53;;;;;;;8.63;6.10;;;;;;;21.30;100.00;101342.78;3598128;39;20036;-61
2021/08/04 10:18:22;;;;;;;9.88;6.80;;;;;;;21.68;100.00;101330.69;3598146;40;20094;-62
2021/08/04 10:20:51;;;;;;;8.98;6.22;;;;;;;21.20;100.00;101333.16;3598126;40;20368;-62
2021/08/04 10:23:18;;;;;;;;;;;;;;;20.72;100.00;101339.16;3596745;40;20032;-62
2021/08/04 10:25:45;;;;;;;8.70;6.38;;;;;;;20.52;100.00;101334.25;3594972;40;19932;-63
2021/08/04 10:28:13;;;;;;;8.65;5.57;;;;;;;20.62;100.00;101321.13;3598073;40;20032;-63
2021/08/04 10:30:43;;;;;;;13.32;6.45;;;;;;;20.47;100.00;101332.09;3598295;40;20352;-62
2021/08/04 10:33:11;;;;;;;7.43;5.80;;;;;;;20.21;100.00;101329.84;3597981;40;20054;-62
2021/08/04 10:35:41;;;;;;;8.15;6.15;;;;;;;20.20;100.00;101330.03;3598064;40;20036;-62
2021/08/04 10:38:10;;;;;;;7.82;6.13;;;;;;;20.45;100.00;101323.25;3597563;40;20089;-63
2021/08/04 10:40:37;;;;;;;6.22;5.05;;;;;;;20.68;100.00;101315.97;3597907;40;20051;-62
2021/08/04 10:43:04;;;;;;;8.82;6.60;;;;;;;20.74;100.00;101326.13;3597927;40;20387;-62
2021/08/04 10:45:32;;;;;;;7.70;6.30;;;;;;;20.51;100.00;101321.63;3597955;40;20044;-62
2021/08/04 10:48:23;;;;;;;8.60;6.38;;;;;;;21.04;100.00;101323.31;3598139;40;20036;-62
2021/08/04 10:51:26;;;;;;;7.97;6.35;;;;;;;21.94;100.00;101319.09;3597970;40;20048;-62
2021/08/04 10:54:17;;;;;;;9.07;7.22;;;;;;;22.74;100.00;101305.81;3597761;40;20280;-62
2021/08/04 10:57:08;;;;;;;6.53;5.82;;;;;;;22.35;100.00;101314.75;3597608;40;20096;-61
2021/08/04 10:59:35;;;;;;;7.75;5.70;;;;;;;22.63;100.00;101306.41;3598080;40;20044;-62
2021/08/04 11:02:33;;;;;;;9.35;4.72;;;;;;;22.75;100.00;101315.72;3660073;22;21930;-63
2021/08/04 11:05:01;;;;;;;7.97;4.57;;;;;;;22.64;100.00;101315.47;3608083;39;20058;-62
2021/08/04 11:07:28;;;;;;;7.82;5.18;;;;;;;22.49;100.00;101318.38;3608139;39;20286;-63
2021/08/04 11:10:00;;;;;;;5.90;4.72;;;;;;;21.61;100.00;101308.75;3607858;39;20529;-62
2021/08/04 11:12:48;;;;;;;6.65;4.35;;;;;;;21.89;100.00;101313.34;3608103;39;20052;-62
2021/08/04 11:15:32;;;;;;;6.90;4.85;;;;;;;22.27;100.00;101315.69;3607869;39;20032;-62
2021/08/04 11:18:13;;;;;;;5.18;4.35;;;;;;;22.34;100.00;101305.66;3608015;39;20031;-63
2021/08/04 11:21:09;;;;;;;5.07;4.38;;;;;;;21.88;100.00;101301.56;3607720;39;20055;-62
2021/08/04 11:26:22;;;;;;;5.57;3.95;;;;;;;21.16;100.00;101303.44;3613864;22;20047;-63
2021/08/04 11:28:49;;;;;;;5.45;4.10;;;;;;;21.09;100.00;101307.16;3609448;39;20035;-63